sensor_id;sensor_type;location;lat;lon;timestamp;temperature;humidity
15997;DHT22;8103;51.340;12.326;2022-07-29T00:01:50;19.10;59.40
15997;DHT22;8103;51.340;12.326;2022-07-29T00:04:19;19.10;59.40
15997;DHT22;8103;51.340;12.326;2022-07-29T00:06:47;19.10;59.60
15997;DHT22;8103;51.340;12.326;2022-07-29T00:09:14;19.10;59.60
15997;DHT22;8103;51.340;12.326;2022-07-29T00:11:41;19.00;59.70
15997;DHT22;8103;51.340;12.326;2022-07-29T00:14:08;19.00;59.70
15997;DHT22;8103;51.340;12.326;2022-07-29T00:16:36;19.00;59.90
15997;DHT22;8103;51.340;12.326;2022-07-29T00:19:03;19.00;59.80
15997;DHT22;8103;51.340;12.326;2022-07-29T00:21:30;19.00;60.00
15997;DHT22;8103;51.340;12.326;2022-07-29T00:23:57;18.90;60.10
15997;DHT22;8103;51.340;12.326;2022-07-29T00:26:23;19.00;60.20
15997;DHT22;8103;51.340;12.326;2022-07-29T00:28:51;18.90;60.40
15997;DHT22;8103;51.340;12.326;2022-07-29T00:31:17;18.90;60.40
15997;DHT22;8103;51.340;12.326;2022-07-29T00:33:44;18.90;60.40
15997;DHT22;8103;51.340;12.326;2022-07-29T00:36:11;18.90;60.40
15997;DHT22;8103;51.340;12.326;2022-07-29T00:38:38;18.80;60.50
15997;DHT22;8103;51.340;12.326;2022-07-29T00:41:05;18.80;60.60
15997;DHT22;8103;51.340;12.326;2022-07-29T00:43:32;18.80;60.70
15997;DHT22;8103;51.340;12.326;2022-07-29T00:45:59;18.80;60.80
15997;DHT22;8103;51.340;12.326;2022-07-29T00:48:26;18.80;60.90
15997;DHT22;8103;51.340;12.326;2022-07-29T00:50:53;18.80;61.00
15997;DHT22;8103;51.340;12.326;2022-07-29T00:53:20;18.80;61.00
15997;DHT22;8103;51.340;12.326;2022-07-29T00:55:47;18.80;61.00
15997;DHT22;8103;51.340;12.326;2022-07-29T00:58:14;18.80;61.10
15997;DHT22;8103;51.340;12.326;2022-07-29T01:00:42;18.80;61.10
15997;DHT22;8103;51.340;12.326;2022-07-29T01:03:09;18.70;61.20
15997;DHT22;8103;51.340;12.326;2022-07-29T01:05:36;18.70;61.30
15997;DHT22;8103;51.340;12.326;2022-07-29T01:08:15;18.70;61.50
15997;DHT22;8103;51.340;12.326;2022-07-29T01:10:43;18.70;61.70
15997;DHT22;8103;51.340;12.326;2022-07-29T01:13:11;18.60;61.70
15997;DHT22;8103;51.340;12.326;2022-07-29T01:15:51;18.60;61.80
15997;DHT22;8103;51.340;12.326;2022-07-29T01:18:27;18.60;61.80
15997;DHT22;8103;51.340;12.326;2022-07-29T01:21:15;18.60;62.00
15997;DHT22;8103;51.340;12.326;2022-07-29T01:26:49;18.60;62.30
15997;DHT22;8103;51.340;12.326;2022-07-29T01:29:30;18.60;62.30
15997;DHT22;8103;51.340;12.326;2022-07-29T01:32:05;18.60;62.30
15997;DHT22;8103;51.340;12.326;2022-07-29T01:34:39;18.50;62.30
15997;DHT22;8103;51.340;12.326;2022-07-29T01:37:24;18.50;62.40
15997;DHT22;8103;51.340;12.326;2022-07-29T01:39:55;18.50;62.50
15997;DHT22;8103;51.340;12.326;2022-07-29T01:42:34;18.50;62.50
15997;DHT22;8103;51.340;12.326;2022-07-29T01:45:18;18.50;62.70
15997;DHT22;8103;51.340;12.326;2022-07-29T01:48:00;18.50;62.80
15997;DHT22;8103;51.340;12.326;2022-07-29T01:50:35;18.50;63.00
15997;DHT22;8103;51.340;12.326;2022-07-29T01:53:09;18.50;62.90
15997;DHT22;8103;51.340;12.326;2022-07-29T01:55:40;18.50;63.00
15997;DHT22;8103;51.340;12.326;2022-07-29T01:58:09;18.40;63.00
15997;DHT22;8103;51.340;12.326;2022-07-29T02:00:38;18.40;63.10
15997;DHT22;8103;51.340;12.326;2022-07-29T02:03:08;18.40;63.10
15997;DHT22;8103;51.340;12.326;2022-07-29T02:05:38;18.40;63.10
15997;DHT22;8103;51.340;12.326;2022-07-29T02:08:06;18.40;63.20
15997;DHT22;8103;51.340;12.326;2022-07-29T02:10:35;18.40;63.20
15997;DHT22;8103;51.340;12.326;2022-07-29T02:13:04;18.40;63.20
15997;DHT22;8103;51.340;12.326;2022-07-29T02:15:33;18.40;63.40
15997;DHT22;8103;51.340;12.326;2022-07-29T02:18:14;18.40;63.40
15997;DHT22;8103;51.340;12.326;2022-07-29T02:20:48;18.40;63.50
15997;DHT22;8103;51.340;12.326;2022-07-29T02:23:21;18.40;63.60
15997;DHT22;8103;51.340;12.326;2022-07-29T02:25:50;18.40;63.60
15997;DHT22;8103;51.340;12.326;2022-07-29T02:28:19;18.30;63.60
15997;DHT22;8103;51.340;12.326;2022-07-29T02:30:47;18.30;63.70
15997;DHT22;8103;51.340;12.326;2022-07-29T02:33:16;18.30;63.70
15997;DHT22;8103;51.340;12.326;2022-07-29T02:35:46;18.30;63.70
15997;DHT22;8103;51.340;12.326;2022-07-29T02:38:15;18.30;63.80
15997;DHT22;8103;51.340;12.326;2022-07-29T02:41:06;18.30;63.90
15997;DHT22;8103;51.340;12.326;2022-07-29T02:43:35;18.30;64.10
15997;DHT22;8103;51.340;12.326;2022-07-29T02:46:05;18.30;64.20
15997;DHT22;8103;51.340;12.326;2022-07-29T02:48:41;18.30;64.10
15997;DHT22;8103;51.340;12.326;2022-07-29T02:51:19;18.30;64.10
15997;DHT22;8103;51.340;12.326;2022-07-29T02:54:07;18.30;64.20
15997;DHT22;8103;51.340;12.326;2022-07-29T02:56:36;18.30;64.30
15997;DHT22;8103;51.340;12.326;2022-07-29T02:59:10;18.20;64.20
15997;DHT22;8103;51.340;12.326;2022-07-29T03:01:41;18.20;64.20
15997;DHT22;8103;51.340;12.326;2022-07-29T03:04:11;18.20;64.30
15997;DHT22;8103;51.340;12.326;2022-07-29T03:06:40;18.20;64.40
15997;DHT22;8103;51.340;12.326;2022-07-29T03:09:07;18.20;64.40
15997;DHT22;8103;51.340;12.326;2022-07-29T03:11:40;18.20;64.50
15997;DHT22;8103;51.340;12.326;2022-07-29T03:14:12;18.20;64.70
15997;DHT22;8103;51.340;12.326;2022-07-29T03:16:39;18.20;64.80
15997;DHT22;8103;51.340;12.326;2022-07-29T03:19:07;18.10;65.10
15997;DHT22;8103;51.340;12.326;2022-07-29T03:21:34;18.10;65.10
15997;DHT22;8103;51.340;12.326;2022-07-29T03:24:00;18.10;65.30
15997;DHT22;8103;51.340;12.326;2022-07-29T03:26:32;18.00;65.40
15997;DHT22;8103;51.340;12.326;2022-07-29T03:28:59;18.00;65.50
15997;DHT22;8103;51.340;12.326;2022-07-29T03:31:26;18.00;65.60
15997;DHT22;8103;51.340;12.326;2022-07-29T03:33:53;18.00;65.60
15997;DHT22;8103;51.340;12.326;2022-07-29T03:36:20;17.90;65.70
15997;DHT22;8103;51.340;12.326;2022-07-29T03:38:47;17.90;65.80
15997;DHT22;8103;51.340;12.326;2022-07-29T03:41:14;17.90;65.90
15997;DHT22;8103;51.340;12.326;2022-07-29T03:43:43;17.90;66.00
15997;DHT22;8103;51.340;12.326;2022-07-29T03:46:17;17.90;66.00
15997;DHT22;8103;51.340;12.326;2022-07-29T03:48:48;17.80;66.00
15997;DHT22;8103;51.340;12.326;2022-07-29T03:51:17;17.80;66.10
15997;DHT22;8103;51.340;12.326;2022-07-29T03:53:43;17.80;66.10
15997;DHT22;8103;51.340;12.326;2022-07-29T03:56:15;17.80;66.20
15997;DHT22;8103;51.340;12.326;2022-07-29T03:58:43;17.80;66.20
15997;DHT22;8103;51.340;12.326;2022-07-29T04:01:11;17.80;66.30
15997;DHT22;8103;51.340;12.326;2022-07-29T04:03:39;17.80;66.40
15997;DHT22;8103;51.340;12.326;2022-07-29T04:06:06;17.80;66.40
15997;DHT22;8103;51.340;12.326;2022-07-29T04:08:34;17.80;66.40
15997;DHT22;8103;51.340;12.326;2022-07-29T04:11:02;17.80;66.40
15997;DHT22;8103;51.340;12.326;2022-07-29T04:13:29;17.80;66.40
15997;DHT22;8103;51.340;12.326;2022-07-29T04:15:57;17.80;66.40
15997;DHT22;8103;51.340;12.326;2022-07-29T04:18:24;17.80;66.40
15997;DHT22;8103;51.340;12.326;2022-07-29T04:20:51;17.90;66.50
15997;DHT22;8103;51.340;12.326;2022-07-29T04:23:17;17.90;66.40
15997;DHT22;8103;51.340;12.326;2022-07-29T04:25:44;17.90;66.30
15997;DHT22;8103;51.340;12.326;2022-07-29T04:28:11;18.00;66.20
15997;DHT22;8103;51.340;12.326;2022-07-29T04:30:38;18.00;66.20
15997;DHT22;8103;51.340;12.326;2022-07-29T04:33:07;18.00;66.30
15997;DHT22;8103;51.340;12.326;2022-07-29T04:35:38;18.00;66.20
15997;DHT22;8103;51.340;12.326;2022-07-29T04:38:09;18.00;66.30
15997;DHT22;8103;51.340;12.326;2022-07-29T04:40:41;18.00;66.20
15997;DHT22;8103;51.340;12.326;2022-07-29T04:43:08;18.00;66.30
15997;DHT22;8103;51.340;12.326;2022-07-29T04:45:35;18.10;66.40
15997;DHT22;8103;51.340;12.326;2022-07-29T04:48:02;18.10;66.20
15997;DHT22;8103;51.340;12.326;2022-07-29T04:50:29;18.10;66.20
15997;DHT22;8103;51.340;12.326;2022-07-29T04:52:56;18.20;66.10
15997;DHT22;8103;51.340;12.326;2022-07-29T04:55:23;18.20;66.00
15997;DHT22;8103;51.340;12.326;2022-07-29T04:57:50;18.20;65.80
15997;DHT22;8103;51.340;12.326;2022-07-29T05:00:16;18.30;65.80
15997;DHT22;8103;51.340;12.326;2022-07-29T05:02:43;18.30;65.70
15997;DHT22;8103;51.340;12.326;2022-07-29T05:05:10;18.40;65.70
15997;DHT22;8103;51.340;12.326;2022-07-29T05:07:37;18.40;65.50
15997;DHT22;8103;51.340;12.326;2022-07-29T05:10:04;18.50;65.40
15997;DHT22;8103;51.340;12.326;2022-07-29T05:12:31;18.50;65.20
15997;DHT22;8103;51.340;12.326;2022-07-29T05:14:59;18.60;65.00
15997;DHT22;8103;51.340;12.326;2022-07-29T05:17:26;18.70;64.80
15997;DHT22;8103;51.340;12.326;2022-07-29T05:19:53;18.80;64.60
15997;DHT22;8103;51.340;12.326;2022-07-29T05:22:20;18.90;64.30
15997;DHT22;8103;51.340;12.326;2022-07-29T05:24:47;18.90;63.90
15997;DHT22;8103;51.340;12.326;2022-07-29T05:27:14;19.00;63.70
15997;DHT22;8103;51.340;12.326;2022-07-29T05:29:41;19.10;63.50
15997;DHT22;8103;51.340;12.326;2022-07-29T05:32:12;19.20;63.00
15997;DHT22;8103;51.340;12.326;2022-07-29T05:34:39;19.30;62.70
15997;DHT22;8103;51.340;12.326;2022-07-29T05:37:17;19.40;62.30
15997;DHT22;8103;51.340;12.326;2022-07-29T05:39:44;19.40;62.00
15997;DHT22;8103;51.340;12.326;2022-07-29T05:42:13;19.50;62.00
15997;DHT22;8103;51.340;12.326;2022-07-29T05:44:40;19.60;61.80
15997;DHT22;8103;51.340;12.326;2022-07-29T05:47:06;19.60;61.50
15997;DHT22;8103;51.340;12.326;2022-07-29T05:49:33;19.70;61.40
15997;DHT22;8103;51.340;12.326;2022-07-29T05:52:00;19.70;61.40
15997;DHT22;8103;51.340;12.326;2022-07-29T05:54:27;19.70;61.20
15997;DHT22;8103;51.340;12.326;2022-07-29T05:56:55;19.80;61.10
15997;DHT22;8103;51.340;12.326;2022-07-29T05:59:22;19.80;60.80
15997;DHT22;8103;51.340;12.326;2022-07-29T06:01:53;19.80;60.90
15997;DHT22;8103;51.340;12.326;2022-07-29T06:04:20;19.90;60.80
15997;DHT22;8103;51.340;12.326;2022-07-29T06:06:47;19.90;60.60
15997;DHT22;8103;51.340;12.326;2022-07-29T06:09:14;20.00;60.30
15997;DHT22;8103;51.340;12.326;2022-07-29T06:11:41;20.10;60.20
15997;DHT22;8103;51.340;12.326;2022-07-29T06:14:08;20.10;60.00
15997;DHT22;8103;51.340;12.326;2022-07-29T06:16:35;20.10;60.00
15997;DHT22;8103;51.340;12.326;2022-07-29T06:19:02;20.10;60.70
15997;DHT22;8103;51.340;12.326;2022-07-29T06:21:29;20.10;60.00
15997;DHT22;8103;51.340;12.326;2022-07-29T06:23:55;20.10;60.00
15997;DHT22;8103;51.340;12.326;2022-07-29T06:26:22;20.20;60.00
15997;DHT22;8103;51.340;12.326;2022-07-29T06:28:55;20.30;60.00
15997;DHT22;8103;51.340;12.326;2022-07-29T06:31:22;20.30;59.70
15997;DHT22;8103;51.340;12.326;2022-07-29T06:33:49;20.40;59.30
15997;DHT22;8103;51.340;12.326;2022-07-29T06:36:16;20.50;59.30
15997;DHT22;8103;51.340;12.326;2022-07-29T06:38:43;20.50;59.10
15997;DHT22;8103;51.340;12.326;2022-07-29T06:41:14;20.60;59.20
15997;DHT22;8103;51.340;12.326;2022-07-29T06:43:43;20.70;59.00
15997;DHT22;8103;51.340;12.326;2022-07-29T06:46:18;20.70;58.90
15997;DHT22;8103;51.340;12.326;2022-07-29T06:48:45;20.90;58.80
15997;DHT22;8103;51.340;12.326;2022-07-29T06:51:12;21.00;58.40
15997;DHT22;8103;51.340;12.326;2022-07-29T06:53:39;21.10;58.00
15997;DHT22;8103;51.340;12.326;2022-07-29T06:56:24;21.20;57.70
15997;DHT22;8103;51.340;12.326;2022-07-29T06:58:52;21.30;57.50
15997;DHT22;8103;51.340;12.326;2022-07-29T07:01:18;21.30;57.40
15997;DHT22;8103;51.340;12.326;2022-07-29T07:03:46;21.40;57.10
15997;DHT22;8103;51.340;12.326;2022-07-29T07:06:13;21.60;57.00
15997;DHT22;8103;51.340;12.326;2022-07-29T07:08:41;21.70;56.70
15997;DHT22;8103;51.340;12.326;2022-07-29T07:11:08;22.00;56.30
15997;DHT22;8103;51.340;12.326;2022-07-29T07:13:35;22.10;55.80
15997;DHT22;8103;51.340;12.326;2022-07-29T07:16:03;22.30;55.50
15997;DHT22;8103;51.340;12.326;2022-07-29T07:18:31;22.40;55.30
15997;DHT22;8103;51.340;12.326;2022-07-29T07:20:58;22.50;54.80
15997;DHT22;8103;51.340;12.326;2022-07-29T07:23:25;22.50;54.70
15997;DHT22;8103;51.340;12.326;2022-07-29T07:25:52;22.60;54.70
15997;DHT22;8103;51.340;12.326;2022-07-29T07:28:19;22.70;54.40
15997;DHT22;8103;51.340;12.326;2022-07-29T07:30:51;22.80;54.00
15997;DHT22;8103;51.340;12.326;2022-07-29T07:33:18;22.90;53.70
15997;DHT22;8103;51.340;12.326;2022-07-29T07:35:45;22.70;53.70
15997;DHT22;8103;51.340;12.326;2022-07-29T07:38:12;22.80;53.90
15997;DHT22;8103;51.340;12.326;2022-07-29T07:40:41;22.90;53.80
15997;DHT22;8103;51.340;12.326;2022-07-29T07:43:07;23.10;53.30
15997;DHT22;8103;51.340;12.326;2022-07-29T07:45:37;23.30;52.90
15997;DHT22;8103;51.340;12.326;2022-07-29T07:48:04;23.50;52.30
15997;DHT22;8103;51.340;12.326;2022-07-29T07:50:31;23.70;51.90
15997;DHT22;8103;51.340;12.326;2022-07-29T07:52:59;23.80;51.60
15997;DHT22;8103;51.340;12.326;2022-07-29T07:55:26;24.00;51.20
15997;DHT22;8103;51.340;12.326;2022-07-29T07:57:53;24.00;51.00
15997;DHT22;8103;51.340;12.326;2022-07-29T08:00:21;24.00;51.00
15997;DHT22;8103;51.340;12.326;2022-07-29T08:02:49;24.00;50.80
15997;DHT22;8103;51.340;12.326;2022-07-29T08:05:17;24.20;51.30
15997;DHT22;8103;51.340;12.326;2022-07-29T08:07:45;24.40;50.70
15997;DHT22;8103;51.340;12.326;2022-07-29T08:10:18;24.70;50.10
15997;DHT22;8103;51.340;12.326;2022-07-29T08:13:08;25.00;49.50
15997;DHT22;8103;51.340;12.326;2022-07-29T08:15:36;25.30;48.40
15997;DHT22;8103;51.340;12.326;2022-07-29T08:18:03;25.70;48.00
15997;DHT22;8103;51.340;12.326;2022-07-29T08:20:35;26.00;47.10
15997;DHT22;8103;51.340;12.326;2022-07-29T08:23:02;26.20;46.70
15997;DHT22;8103;51.340;12.326;2022-07-29T08:25:32;26.50;46.10
15997;DHT22;8103;51.340;12.326;2022-07-29T08:28:00;26.70;45.90
15997;DHT22;8103;51.340;12.326;2022-07-29T08:30:27;26.80;45.50
15997;DHT22;8103;51.340;12.326;2022-07-29T08:32:54;27.10;45.00
15997;DHT22;8103;51.340;12.326;2022-07-29T08:35:23;27.50;44.50
15997;DHT22;8103;51.340;12.326;2022-07-29T08:37:50;27.80;43.80
15997;DHT22;8103;51.340;12.326;2022-07-29T08:40:19;28.10;43.10
15997;DHT22;8103;51.340;12.326;2022-07-29T08:42:56;28.40;42.40
15997;DHT22;8103;51.340;12.326;2022-07-29T08:45:23;28.80;41.90
15997;DHT22;8103;51.340;12.326;2022-07-29T08:47:52;28.90;41.60
15997;DHT22;8103;51.340;12.326;2022-07-29T08:50:19;29.20;40.50
15997;DHT22;8103;51.340;12.326;2022-07-29T08:52:46;29.60;40.30
15997;DHT22;8103;51.340;12.326;2022-07-29T08:55:15;30.00;39.70
15997;DHT22;8103;51.340;12.326;2022-07-29T08:57:42;30.40;38.80
15997;DHT22;8103;51.340;12.326;2022-07-29T09:00:14;30.70;37.90
15997;DHT22;8103;51.340;12.326;2022-07-29T09:02:47;31.00;37.40
15997;DHT22;8103;51.340;12.326;2022-07-29T09:05:18;31.10;37.60
15997;DHT22;8103;51.340;12.326;2022-07-29T09:07:46;31.80;36.70
15997;DHT22;8103;51.340;12.326;2022-07-29T09:10:14;32.10;36.10
15997;DHT22;8103;51.340;12.326;2022-07-29T09:12:41;32.40;35.60
15997;DHT22;8103;51.340;12.326;2022-07-29T09:15:09;32.40;35.30
15997;DHT22;8103;51.340;12.326;2022-07-29T09:17:46;32.30;35.60
15997;DHT22;8103;51.340;12.326;2022-07-29T09:20:18;32.40;35.40
15997;DHT22;8103;51.340;12.326;2022-07-29T09:22:46;32.50;35.10
15997;DHT22;8103;51.340;12.326;2022-07-29T09:25:36;32.80;34.60
15997;DHT22;8103;51.340;12.326;2022-07-29T09:28:13;33.00;34.60
15997;DHT22;8103;51.340;12.326;2022-07-29T09:30:51;33.20;33.90
15997;DHT22;8103;51.340;12.326;2022-07-29T09:33:19;33.70;34.00
15997;DHT22;8103;51.340;12.326;2022-07-29T09:35:59;34.00;32.80
15997;DHT22;8103;51.340;12.326;2022-07-29T09:38:27;34.40;32.10
15997;DHT22;8103;51.340;12.326;2022-07-29T09:41:02;34.50;31.80
15997;DHT22;8103;51.340;12.326;2022-07-29T09:43:32;34.90;30.50
15997;DHT22;8103;51.340;12.326;2022-07-29T09:46:12;35.20;30.30
15997;DHT22;8103;51.340;12.326;2022-07-29T09:48:40;35.70;30.10
15997;DHT22;8103;51.340;12.326;2022-07-29T09:51:19;36.30;29.60
15997;DHT22;8103;51.340;12.326;2022-07-29T09:53:55;36.70;29.00
15997;DHT22;8103;51.340;12.326;2022-07-29T09:56:42;36.60;28.90
15997;DHT22;8103;51.340;12.326;2022-07-29T09:59:09;36.80;28.80
15997;DHT22;8103;51.340;12.326;2022-07-29T10:01:37;37.30;28.40
15997;DHT22;8103;51.340;12.326;2022-07-29T10:04:04;37.80;27.90
15997;DHT22;8103;51.340;12.326;2022-07-29T10:06:31;38.30;27.00
15997;DHT22;8103;51.340;12.326;2022-07-29T10:09:11;38.70;26.60
15997;DHT22;8103;51.340;12.326;2022-07-29T10:11:38;38.90;26.20
15997;DHT22;8103;51.340;12.326;2022-07-29T10:14:14;38.90;26.30
15997;DHT22;8103;51.340;12.326;2022-07-29T10:16:42;39.30;26.10
15997;DHT22;8103;51.340;12.326;2022-07-29T10:19:09;39.80;25.40
15997;DHT22;8103;51.340;12.326;2022-07-29T10:21:36;40.20;24.80
15997;DHT22;8103;51.340;12.326;2022-07-29T10:24:04;40.70;24.60
15997;DHT22;8103;51.340;12.326;2022-07-29T10:26:33;41.20;24.40
15997;DHT22;8103;51.340;12.326;2022-07-29T10:29:00;41.50;24.10
15997;DHT22;8103;51.340;12.326;2022-07-29T10:31:38;41.70;23.60
15997;DHT22;8103;51.340;12.326;2022-07-29T10:37:40;42.30;23.30
15997;DHT22;8103;51.340;12.326;2022-07-29T10:40:33;42.70;22.90
15997;DHT22;8103;51.340;12.326;2022-07-29T10:43:28;43.30;22.40
15997;DHT22;8103;51.340;12.326;2022-07-29T10:45:59;43.90;21.70
15997;DHT22;8103;51.340;12.326;2022-07-29T10:48:26;44.70;21.10
15997;DHT22;8103;51.340;12.326;2022-07-29T10:50:58;45.70;29.20
15997;DHT22;8103;51.340;12.326;2022-07-29T10:53:55;46.00;31.40
15997;DHT22;8103;51.340;12.326;2022-07-29T10:56:28;46.60;31.50
15997;DHT22;8103;51.340;12.326;2022-07-29T10:59:32;46.90;29.30
15997;DHT22;8103;51.340;12.326;2022-07-29T11:02:01;47.00;28.90
15997;DHT22;8103;51.340;12.326;2022-07-29T11:05:10;47.70;18.50
15997;DHT22;8103;51.340;12.326;2022-07-29T11:07:38;48.00;19.00
15997;DHT22;8103;51.340;12.326;2022-07-29T11:15:11;49.60;18.10
15997;DHT22;8103;51.340;12.326;2022-07-29T11:20:54;50.20;22.90
15997;DHT22;8103;51.340;12.326;2022-07-29T11:23:27;51.00;27.50
15997;DHT22;8103;51.340;12.326;2022-07-29T11:31:36;51.00;28.80
15997;DHT22;8103;51.340;12.326;2022-07-29T11:47:25;52.50;29.20
15997;DHT22;8103;51.340;12.326;2022-07-29T11:49:55;53.00;28.10
15997;DHT22;8103;51.340;12.326;2022-07-29T11:52:38;53.60;28.00
15997;DHT22;8103;51.340;12.326;2022-07-29T11:55:19;53.70;32.10
15997;DHT22;8103;51.340;12.326;2022-07-29T11:58:00;53.90;31.00
15997;DHT22;8103;51.340;12.326;2022-07-29T12:00:40;54.10;29.70
15997;DHT22;8103;51.340;12.326;2022-07-29T12:03:10;54.50;30.00
15997;DHT22;8103;51.340;12.326;2022-07-29T12:05:43;54.90;28.80
15997;DHT22;8103;51.340;12.326;2022-07-29T12:08:16;55.20;28.10
15997;DHT22;8103;51.340;12.326;2022-07-29T12:10:47;55.30;27.40
15997;DHT22;8103;51.340;12.326;2022-07-29T12:13:16;55.30;27.10
15997;DHT22;8103;51.340;12.326;2022-07-29T12:15:55;55.20;27.00
15997;DHT22;8103;51.340;12.326;2022-07-29T12:18:25;54.70;26.80
15997;DHT22;8103;51.340;12.326;2022-07-29T12:20:59;54.60;26.50
15997;DHT22;8103;51.340;12.326;2022-07-29T12:23:31;55.30;26.20
15997;DHT22;8103;51.340;12.326;2022-07-29T12:26:03;55.70;26.00
15997;DHT22;8103;51.340;12.326;2022-07-29T12:28:30;55.60;26.20
15997;DHT22;8103;51.340;12.326;2022-07-29T12:31:03;55.50;26.50
15997;DHT22;8103;51.340;12.326;2022-07-29T12:33:31;55.30;26.70
15997;DHT22;8103;51.340;12.326;2022-07-29T12:36:00;55.70;26.70
15997;DHT22;8103;51.340;12.326;2022-07-29T12:38:40;56.30;35.20
15997;DHT22;8103;51.340;12.326;2022-07-29T12:41:07;55.80;38.50
15997;DHT22;8103;51.340;12.326;2022-07-29T12:43:34;55.10;35.00
15997;DHT22;8103;51.340;12.326;2022-07-29T12:46:13;54.50;34.30
15997;DHT22;8103;51.340;12.326;2022-07-29T12:48:42;53.50;33.80
15997;DHT22;8103;51.340;12.326;2022-07-29T12:51:10;52.90;34.00
15997;DHT22;8103;51.340;12.326;2022-07-29T12:53:39;53.10;34.20
15997;DHT22;8103;51.340;12.326;2022-07-29T12:56:15;51.90;34.90
15997;DHT22;8103;51.340;12.326;2022-07-29T12:59:34;50.00;36.90
15997;DHT22;8103;51.340;12.326;2022-07-29T13:02:01;47.20;40.10
15997;DHT22;8103;51.340;12.326;2022-07-29T13:04:30;45.40;42.60
15997;DHT22;8103;51.340;12.326;2022-07-29T13:07:06;44.00;45.80
15997;DHT22;8103;51.340;12.326;2022-07-29T13:09:44;42.90;49.00
15997;DHT22;8103;51.340;12.326;2022-07-29T13:12:15;41.70;51.70
15997;DHT22;8103;51.340;12.326;2022-07-29T13:14:49;40.80;54.10
15997;DHT22;8103;51.340;12.326;2022-07-29T13:17:19;40.00;56.10
15997;DHT22;8103;51.340;12.326;2022-07-29T13:19:49;39.20;58.00
15997;DHT22;8103;51.340;12.326;2022-07-29T13:22:18;38.50;58.20
15997;DHT22;8103;51.340;12.326;2022-07-29T13:24:50;38.00;58.80
15997;DHT22;8103;51.340;12.326;2022-07-29T13:27:26;37.40;59.80
15997;DHT22;8103;51.340;12.326;2022-07-29T13:29:56;37.10;61.00
15997;DHT22;8103;51.340;12.326;2022-07-29T13:32:25;36.90;61.70
15997;DHT22;8103;51.340;12.326;2022-07-29T13:34:54;36.80;62.30
15997;DHT22;8103;51.340;12.326;2022-07-29T13:37:21;36.70;62.10
15997;DHT22;8103;51.340;12.326;2022-07-29T13:39:48;36.80;61.70
15997;DHT22;8103;51.340;12.326;2022-07-29T13:42:16;36.80;61.40
15997;DHT22;8103;51.340;12.326;2022-07-29T13:44:43;36.80;60.80
15997;DHT22;8103;51.340;12.326;2022-07-29T13:47:13;36.70;60.80
15997;DHT22;8103;51.340;12.326;2022-07-29T13:49:40;36.40;59.90
15997;DHT22;8103;51.340;12.326;2022-07-29T13:52:06;36.00;59.40
15997;DHT22;8103;51.340;12.326;2022-07-29T13:54:34;35.70;59.30
15997;DHT22;8103;51.340;12.326;2022-07-29T13:57:08;35.10;59.20
15997;DHT22;8103;51.340;12.326;2022-07-29T13:59:35;34.80;59.20
15997;DHT22;8103;51.340;12.326;2022-07-29T14:02:02;34.50;59.30
15997;DHT22;8103;51.340;12.326;2022-07-29T14:04:29;34.40;59.00
15997;DHT22;8103;51.340;12.326;2022-07-29T14:06:56;34.10;58.90
15997;DHT22;8103;51.340;12.326;2022-07-29T14:09:23;34.00;58.80
15997;DHT22;8103;51.340;12.326;2022-07-29T14:11:49;33.90;59.00
15997;DHT22;8103;51.340;12.326;2022-07-29T14:14:18;33.70;58.80
15997;DHT22;8103;51.340;12.326;2022-07-29T14:16:45;33.60;58.90
15997;DHT22;8103;51.340;12.326;2022-07-29T14:19:16;33.50;59.10
15997;DHT22;8103;51.340;12.326;2022-07-29T14:21:43;33.40;59.30
15997;DHT22;8103;51.340;12.326;2022-07-29T14:24:11;33.30;59.10
15997;DHT22;8103;51.340;12.326;2022-07-29T14:26:42;33.10;59.30
15997;DHT22;8103;51.340;12.326;2022-07-29T14:29:09;32.90;59.40
15997;DHT22;8103;51.340;12.326;2022-07-29T14:31:36;32.80;59.60
15997;DHT22;8103;51.340;12.326;2022-07-29T14:34:03;32.60;59.40
15997;DHT22;8103;51.340;12.326;2022-07-29T14:36:29;32.50;59.40
15997;DHT22;8103;51.340;12.326;2022-07-29T14:38:57;32.50;59.50
15997;DHT22;8103;51.340;12.326;2022-07-29T14:41:24;32.50;59.60
15997;DHT22;8103;51.340;12.326;2022-07-29T14:43:51;32.60;59.70
15997;DHT22;8103;51.340;12.326;2022-07-29T14:46:20;32.60;59.80
15997;DHT22;8103;51.340;12.326;2022-07-29T14:48:47;32.60;59.80
15997;DHT22;8103;51.340;12.326;2022-07-29T14:51:14;32.60;60.00
15997;DHT22;8103;51.340;12.326;2022-07-29T14:53:40;32.60;60.00
15997;DHT22;8103;51.340;12.326;2022-07-29T14:56:10;32.50;60.00
15997;DHT22;8103;51.340;12.326;2022-07-29T14:58:57;32.50;60.10
15997;DHT22;8103;51.340;12.326;2022-07-29T15:01:29;32.40;60.10
15997;DHT22;8103;51.340;12.326;2022-07-29T15:03:56;32.40;60.30
15997;DHT22;8103;51.340;12.326;2022-07-29T15:06:26;32.40;60.40
15997;DHT22;8103;51.340;12.326;2022-07-29T15:08:53;32.50;60.60
15997;DHT22;8103;51.340;12.326;2022-07-29T15:11:20;32.40;61.50
15997;DHT22;8103;51.340;12.326;2022-07-29T15:13:47;32.60;60.70
15997;DHT22;8103;51.340;12.326;2022-07-29T15:16:14;32.80;60.80
15997;DHT22;8103;51.340;12.326;2022-07-29T15:18:41;32.70;60.70
15997;DHT22;8103;51.340;12.326;2022-07-29T15:21:08;32.60;60.70
15997;DHT22;8103;51.340;12.326;2022-07-29T15:23:34;32.50;60.90
15997;DHT22;8103;51.340;12.326;2022-07-29T15:26:03;32.40;61.20
15997;DHT22;8103;51.340;12.326;2022-07-29T15:28:30;32.20;61.50
15997;DHT22;8103;51.340;12.326;2022-07-29T15:30:57;32.10;61.90
15997;DHT22;8103;51.340;12.326;2022-07-29T15:33:25;32.00;62.00
15997;DHT22;8103;51.340;12.326;2022-07-29T15:35:52;32.00;62.10
15997;DHT22;8103;51.340;12.326;2022-07-29T15:38:19;32.10;62.10
15997;DHT22;8103;51.340;12.326;2022-07-29T15:40:46;32.20;62.10
15997;DHT22;8103;51.340;12.326;2022-07-29T15:43:13;32.30;61.80
15997;DHT22;8103;51.340;12.326;2022-07-29T15:45:41;32.30;61.60
15997;DHT22;8103;51.340;12.326;2022-07-29T15:48:29;32.50;61.40
15997;DHT22;8103;51.340;12.326;2022-07-29T15:50:56;32.60;61.10
15997;DHT22;8103;51.340;12.326;2022-07-29T15:53:22;32.50;61.20
15997;DHT22;8103;51.340;12.326;2022-07-29T15:55:51;32.20;63.10
15997;DHT22;8103;51.340;12.326;2022-07-29T15:58:18;31.30;64.60
15997;DHT22;8103;51.340;12.326;2022-07-29T16:00:45;30.20;65.80
15997;DHT22;8103;51.340;12.326;2022-07-29T16:03:12;29.30;64.50
15997;DHT22;8103;51.340;12.326;2022-07-29T16:05:39;28.80;65.60
15997;DHT22;8103;51.340;12.326;2022-07-29T16:08:06;28.40;66.10
15997;DHT22;8103;51.340;12.326;2022-07-29T16:10:33;28.20;66.40
15997;DHT22;8103;51.340;12.326;2022-07-29T16:13:00;28.00;66.60
15997;DHT22;8103;51.340;12.326;2022-07-29T16:15:27;27.80;66.50
15997;DHT22;8103;51.340;12.326;2022-07-29T16:17:55;27.60;67.20
15997;DHT22;8103;51.340;12.326;2022-07-29T16:20:22;27.50;67.80
15997;DHT22;8103;51.340;12.326;2022-07-29T16:22:49;27.30;68.20